Time,TemperatureF,DewpointF,PressureIn,WindDirection,WindDirectionDegrees,WindSpeedMPH,WindSpeedGustMPH,Humidity,HourlyPrecipIn,Conditions,Clouds,dailyrainin,SolarRadiationWatts/m^2,SoftwareType,DateUTC
2013-08-02 00:00:00,77.5,77.5,30.08,SSE,160,0.0,0.0,100,0.00,,,0.12,0.0,meteohub,2013-08-02 04:00:00,
2013-08-02 00:01:00,77.5,77.5,30.08,SSE,160,0.0,0.0,100,0.00,,,0.12,0.0,meteohub,2013-08-02 04:01:00,
2013-08-02 00:02:00,77.5,77.5,30.08,SSE,160,0.0,0.0,100,0.00,,,0.12,0.0,meteohub,2013-08-02 04:02:00,
2013-08-02 00:07:00,77.4,77.4,30.08,SSE,160,0.0,0.0,100,0.00,,,0.00,0.0,meteohub,2013-08-02 04:07:00,
2013-08-02 00:12:00,77.4,77.4,30.08,SSE,160,0.0,0.0,100,0.00,,,0.00,0.0,meteohub,2013-08-02 04:12:00,
2013-08-02 00:17:00,77.2,77.2,30.08,SSE,160,0.0,0.0,100,0.00,,,0.00,0.0,meteohub,2013-08-02 04:17:00,
2013-08-02 00:22:00,77.2,77.2,30.08,SSE,160,0.0,0.0,100,0.00,,,0.00,0.0,meteohub,2013-08-02 04:22:00,
2013-08-02 00:27:00,77.2,77.2,30.08,SSE,160,0.0,0.0,100,0.00,,,0.00,0.0,meteohub,2013-08-02 04:27:00,
2013-08-02 00:32:00,77.2,77.2,30.08,SSE,160,0.0,0.0,100,0.00,,,0.00,0.0,meteohub,2013-08-02 04:32:00,
2013-08-02 00:37:00,77.2,77.2,30.08,SSE,160,0.0,0.0,100,0.00,,,0.00,0.0,meteohub,2013-08-02 04:37:00,
2013-08-02 00:42:00,77.0,77.0,30.08,SSE,160,0.0,0.0,100,0.00,,,0.00,0.0,meteohub,2013-08-02 04:42:00,
2013-08-02 00:47:00,77.0,77.0,30.08,SSE,160,0.0,0.0,100,0.00,,,0.00,0.0,meteohub,2013-08-02 04:47:00,
2013-08-02 00:52:00,77.0,77.0,30.08,SSE,158,0.0,0.0,100,0.00,,,0.00,0.0,meteohub,2013-08-02 04:52:00,
2013-08-02 00:57:00,77.0,77.0,30.08,SSE,158,0.0,0.0,100,0.00,,,0.00,0.0,meteohub,2013-08-02 04:57:00,
2013-08-02 01:02:00,76.8,76.8,30.08,SSE,160,0.0,0.0,100,0.00,,,0.00,0.0,meteohub,2013-08-02 05:02:00,
2013-08-02 01:07:00,76.8,76.8,30.08,SSE,160,0.0,0.0,100,0.00,,,0.00,0.0,meteohub,2013-08-02 05:07:00,
2013-08-02 01:12:00,76.8,76.8,30.07,SSE,160,0.0,0.0,100,0.00,,,0.00,0.0,meteohub,2013-08-02 05:12:00,
2013-08-02 01:18:00,77.0,77.0,30.07,SSE,161,0.0,0.0,100,0.00,,,0.00,0.0,meteohub,2013-08-02 05:18:00,
2013-08-02 01:23:00,77.0,77.0,30.07,SSE,160,0.0,0.0,100,0.00,,,0.00,0.0,meteohub,2013-08-02 05:23:00,
2013-08-02 01:28:00,77.0,77.0,30.07,SSE,161,0.0,0.0,100,0.00,,,0.00,0.0,meteohub,2013-08-02 05:28:00,
2013-08-02 01:33:00,77.0,77.0,30.07,SSE,160,0.0,0.0,100,0.00,,,0.00,0.0,meteohub,2013-08-02 05:33:00,
2013-08-02 01:38:00,76.8,76.8,30.07,SSE,160,0.0,0.0,100,0.00,,,0.00,0.0,meteohub,2013-08-02 05:38:00,
2013-08-02 01:43:00,76.6,76.6,30.07,SSE,160,0.0,0.0,100,0.00,,,0.00,0.0,meteohub,2013-08-02 05:43:00,
2013-08-02 01:48:00,76.8,76.8,30.07,SSE,160,0.0,0.0,100,0.00,,,0.00,0.0,meteohub,2013-08-02 05:48:00,
2013-08-02 01:53:00,76.8,76.8,30.07,SSE,160,0.0,0.0,100,0.00,,,0.00,0.0,meteohub,2013-08-02 05:53:00,
2013-08-02 01:58:00,76.8,76.8,30.06,SSE,160,0.0,0.0,100,0.00,,,0.00,0.0,meteohub,2013-08-02 05:58:00,
2013-08-02 02:03:00,77.0,77.0,30.06,SSE,161,0.0,0.0,100,0.00,,,0.00,0.0,meteohub,2013-08-02 06:03:00,
2013-08-02 02:08:00,77.0,77.0,30.06,SSE,160,0.0,0.0,100,0.00,,,0.00,0.0,meteohub,2013-08-02 06:08:00,
2013-08-02 02:13:00,77.0,77.0,30.06,SSE,160,0.0,0.0,100,0.00,,,0.00,0.0,meteohub,2013-08-02 06:13:00,
2013-08-02 02:18:00,77.2,77.2,30.06,SSE,160,0.0,0.0,100,0.00,,,0.00,0.0,meteohub,2013-08-02 06:18:00,
2013-08-02 02:23:00,77.2,77.2,30.06,SSE,160,0.0,0.0,100,0.00,,,0.00,0.0,meteohub,2013-08-02 06:23:00,
2013-08-02 02:28:00,77.0,77.0,30.06,SSE,160,0.0,0.0,100,0.00,,,0.00,0.0,meteohub,2013-08-02 06:28:00,
2013-08-02 02:33:00,77.0,77.0,30.06,SSE,160,0.0,0.0,100,0.00,,,0.00,0.0,meteohub,2013-08-02 06:33:00,
2013-08-02 02:38:00,76.8,76.8,30.06,SSE,160,0.0,0.0,100,0.00,,,0.00,0.0,meteohub,2013-08-02 06:38:00,
2013-08-02 02:43:00,77.0,77.0,30.06,SSE,160,0.0,0.0,100,0.00,,,0.00,0.0,meteohub,2013-08-02 06:43:00,
2013-08-02 02:48:00,77.0,77.0,30.06,SSE,160,0.0,0.0,100,0.00,,,0.00,0.0,meteohub,2013-08-02 06:48:00,
2013-08-02 02:53:00,77.0,77.0,30.06,SSE,160,0.0,0.0,100,0.00,,,0.00,0.0,meteohub,2013-08-02 06:53:00,
2013-08-02 02:58:00,76.8,76.8,30.06,SSE,160,0.0,0.0,100,0.00,,,0.00,0.0,meteohub,2013-08-02 06:58:00,
2013-08-02 03:03:00,76.8,76.8,30.06,SSE,160,0.0,0.0,100,0.00,,,0.00,0.0,meteohub,2013-08-02 07:03:00,
2013-08-02 03:09:00,76.8,76.8,30.06,SSE,160,0.0,0.0,100,0.00,,,0.00,0.0,meteohub,2013-08-02 07:09:00,
2013-08-02 03:14:00,76.8,76.8,30.06,SSE,160,0.0,0.0,100,0.00,,,0.00,0.0,meteohub,2013-08-02 07:14:00,
2013-08-02 03:19:00,76.8,76.8,30.06,SSE,160,0.0,0.0,100,0.00,,,0.00,0.0,meteohub,2013-08-02 07:19:00,
2013-08-02 03:24:00,76.8,76.8,30.06,SSE,160,0.0,0.0,100,0.00,,,0.00,0.0,meteohub,2013-08-02 07:24:00,
2013-08-02 03:29:00,76.6,76.6,30.05,SSE,160,0.0,0.0,100,0.00,,,0.00,0.0,meteohub,2013-08-02 07:29:00,
2013-08-02 03:34:00,76.6,76.6,30.05,SSE,160,0.0,0.0,100,0.00,,,0.00,0.0,meteohub,2013-08-02 07:34:00,
2013-08-02 03:39:00,76.5,76.5,30.05,SSE,160,0.0,0.0,100,0.00,,,0.00,0.0,meteohub,2013-08-02 07:39:00,
2013-08-02 03:44:00,76.5,76.5,30.05,SSE,158,0.0,0.0,100,0.00,,,0.00,0.0,meteohub,2013-08-02 07:44:00,
2013-08-02 03:49:00,76.5,76.5,30.05,SSE,160,0.0,0.0,100,0.00,,,0.00,0.0,meteohub,2013-08-02 07:49:00,
2013-08-02 03:54:00,76.3,76.3,30.05,SSE,160,0.0,0.0,100,0.00,,,0.00,0.0,meteohub,2013-08-02 07:54:00,
2013-08-02 03:59:00,76.3,76.3,30.06,SSE,160,0.0,0.0,100,0.00,,,0.00,0.0,meteohub,2013-08-02 07:59:00,
2013-08-02 04:04:00,76.3,76.3,30.06,SSE,160,0.0,0.0,100,0.00,,,0.00,0.0,meteohub,2013-08-02 08:04:00,
2013-08-02 04:09:00,76.1,76.1,30.06,SSE,160,0.0,0.0,100,0.00,,,0.00,0.0,meteohub,2013-08-02 08:09:00,
2013-08-02 04:14:00,76.1,76.1,30.06,SSE,160,0.0,0.0,100,0.00,,,0.00,0.0,meteohub,2013-08-02 08:14:00,
2013-08-02 04:19:00,76.1,76.1,30.06,SSE,160,0.0,0.0,100,0.00,,,0.00,0.0,meteohub,2013-08-02 08:19:00,
2013-08-02 04:24:00,76.1,76.1,30.06,SSE,160,0.0,0.0,100,0.00,,,0.00,0.0,meteohub,2013-08-02 08:24:00,
2013-08-02 04:29:00,76.1,76.1,30.06,SSE,160,0.0,0.0,100,0.00,,,0.00,0.0,meteohub,2013-08-02 08:29:00,
2013-08-02 04:34:00,75.9,75.9,30.06,SSE,160,0.0,0.0,100,0.00,,,0.00,0.0,meteohub,2013-08-02 08:34:00,
2013-08-02 04:39:00,75.9,75.9,30.06,SSE,160,0.0,0.0,100,0.00,,,0.00,0.0,meteohub,2013-08-02 08:39:00,
2013-08-02 04:44:00,75.9,75.9,30.06,SSE,160,0.0,0.0,100,0.00,,,0.00,0.0,meteohub,2013-08-02 08:44:00,
2013-08-02 04:49:00,75.9,75.9,30.06,SSE,160,0.0,0.0,100,0.00,,,0.00,0.0,meteohub,2013-08-02 08:49:00,
2013-08-02 04:54:00,75.9,75.9,30.06,SSE,160,0.0,0.0,100,0.00,,,0.00,0.0,meteohub,2013-08-02 08:54:00,
2013-08-02 04:59:00,75.9,75.9,30.06,SSE,160,0.0,0.0,100,0.00,,,0.00,0.0,meteohub,2013-08-02 08:59:00,
2013-08-02 05:04:00,75.9,75.9,30.06,SSE,158,0.0,0.0,100,0.00,,,0.00,0.0,meteohub,2013-08-02 09:04:00,
2013-08-02 05:09:00,75.7,75.7,30.06,SSE,161,0.0,0.0,100,0.00,,,0.00,0.0,meteohub,2013-08-02 09:09:00,
2013-08-02 05:14:00,75.7,75.7,30.06,SSE,160,0.0,0.0,100,0.00,,,0.00,0.0,meteohub,2013-08-02 09:14:00,
2013-08-02 05:20:00,75.7,75.7,30.06,SSE,160,0.0,0.0,100,0.00,,,0.00,0.0,meteohub,2013-08-02 09:20:00,
2013-08-02 05:25:00,75.7,75.7,30.06,SSE,160,0.0,0.0,100,0.00,,,0.00,0.0,meteohub,2013-08-02 09:25:00,
2013-08-02 05:30:00,75.7,75.7,30.07,SSE,160,0.0,0.0,100,0.00,,,0.00,0.0,meteohub,2013-08-02 09:30:00,
2013-08-02 05:35:00,75.7,75.7,30.07,SSE,160,0.0,0.0,100,0.00,,,0.00,0.0,meteohub,2013-08-02 09:35:00,
2013-08-02 05:40:00,75.7,75.7,30.07,SSE,160,0.0,0.0,100,0.00,,,0.00,0.0,meteohub,2013-08-02 09:40:00,
2013-08-02 05:45:00,75.7,75.7,30.07,SSE,160,0.0,0.0,100,0.00,,,0.00,0.0,meteohub,2013-08-02 09:45:00,
2013-08-02 05:50:00,75.7,75.7,30.07,SSE,160,0.0,0.0,100,0.00,,,0.00,0.0,meteohub,2013-08-02 09:50:00,
2013-08-02 05:55:00,75.6,75.6,30.07,SSE,160,0.0,0.0,100,0.00,,,0.00,0.0,meteohub,2013-08-02 09:55:00,
2013-08-02 06:00:00,75.7,75.7,30.08,SSE,160,0.0,0.0,100,0.00,,,0.00,0.0,meteohub,2013-08-02 10:00:00,
2013-08-02 06:05:00,75.7,75.7,30.08,SSE,160,0.0,0.0,100,0.00,,,0.00,0.0,meteohub,2013-08-02 10:05:00,
2013-08-02 06:10:00,75.6,75.6,30.08,SSE,160,0.0,0.0,100,0.00,,,0.00,0.0,meteohub,2013-08-02 10:10:00,
2013-08-02 06:15:00,75.6,75.6,30.08,SSE,155,0.0,0.0,100,0.00,,,0.00,7.0,meteohub,2013-08-02 10:15:00,
2013-08-02 06:20:00,75.7,75.7,30.08,SSE,160,0.0,0.0,100,0.00,,,0.00,11.0,meteohub,2013-08-02 10:20:00,
2013-08-02 06:25:00,75.7,75.7,30.08,SSE,160,0.0,0.0,100,0.00,,,0.00,25.0,meteohub,2013-08-02 10:25:00,
2013-08-02 06:30:00,75.7,75.7,30.09,SSE,160,0.0,0.0,100,0.00,,,0.00,40.0,meteohub,2013-08-02 10:30:00,
2013-08-02 06:35:00,75.9,75.9,30.09,SSE,161,0.0,0.0,100,0.00,,,0.00,49.0,meteohub,2013-08-02 10:35:00,
2013-08-02 06:40:00,75.9,75.9,30.09,SSE,161,0.0,0.0,100,0.00,,,0.00,76.0,meteohub,2013-08-02 10:40:00,
2013-08-02 06:45:00,76.1,76.1,30.09,SSE,160,0.0,0.0,100,0.00,,,0.00,99.0,meteohub,2013-08-02 10:45:00,
2013-08-02 06:50:00,76.5,76.5,30.09,SSE,161,0.0,0.0,100,0.00,,,0.00,107.0,meteohub,2013-08-02 10:50:00,
2013-08-02 06:55:00,76.6,76.6,30.09,SSE,158,0.0,0.0,100,0.00,,,0.00,104.0,meteohub,2013-08-02 10:55:00,
2013-08-02 07:01:00,76.8,76.8,30.10,SSE,160,0.0,0.0,100,0.00,,,0.00,51.0,meteohub,2013-08-02 11:01:00,
2013-08-02 07:05:00,77.0,77.0,30.10,SSE,161,0.0,0.0,100,0.00,,,0.00,32.0,meteohub,2013-08-02 11:05:00,
2013-08-02 07:10:00,77.2,77.2,30.10,SSE,160,0.0,0.0,100,0.00,,,0.00,32.0,meteohub,2013-08-02 11:10:00,
2013-08-02 07:15:00,77.2,77.2,30.10,SSE,160,0.0,0.0,100,0.00,,,0.00,37.0,meteohub,2013-08-02 11:15:00,
2013-08-02 07:20:00,77.4,77.4,30.10,SSE,160,0.0,0.0,100,0.00,,,0.00,63.0,meteohub,2013-08-02 11:20:00,
2013-08-02 07:25:00,77.5,77.5,30.10,SSE,160,0.0,0.0,100,0.00,,,0.00,90.0,meteohub,2013-08-02 11:25:00,
2013-08-02 07:31:00,77.7,77.7,30.10,SSE,160,0.0,0.0,100,0.00,,,0.00,155.0,meteohub,2013-08-02 11:31:00,
2013-08-02 07:35:00,78.4,78.4,30.10,SSE,160,0.0,0.0,100,0.00,,,0.00,266.0,meteohub,2013-08-02 11:35:00,
2013-08-02 07:40:00,79.2,79.2,30.10,SSE,160,0.0,1.0,100,0.00,,,0.00,327.0,meteohub,2013-08-02 11:40:00,
2013-08-02 07:46:00,79.3,79.0,30.10,SE,140,0.0,6.0,99,0.00,,,0.00,318.0,meteohub,2013-08-02 11:46:00,
2013-08-02 07:51:00,80.1,79.5,30.10,SE,140,0.0,6.0,98,0.00,,,0.00,334.0,meteohub,2013-08-02 11:51:00,
2013-08-02 07:56:00,80.2,79.7,30.10,SSE,150,6.0,6.0,98,0.00,,,0.00,348.0,meteohub,2013-08-02 11:56:00,
2013-08-02 08:01:00,81.0,80.1,30.10,SSE,148,0.0,7.0,97,0.00,,,0.00,368.0,meteohub,2013-08-02 12:01:00,
2013-08-02 08:06:00,81.3,80.1,30.10,SE,138,5.0,7.0,96,0.00,,,0.00,391.0,meteohub,2013-08-02 12:06:00,
2013-08-02 08:11:00,81.9,80.2,30.10,SE,124,3.0,10.0,95,0.00,,,0.00,401.0,meteohub,2013-08-02 12:11:00,
2013-08-02 08:16:00,82.4,80.4,30.10,ESE,119,5.0,10.0,94,0.00,,,0.00,428.0,meteohub,2013-08-02 12:16:00,
2013-08-02 08:21:00,82.9,80.8,30.10,ESE,114,0.0,10.0,93,0.00,,,0.00,429.0,meteohub,2013-08-02 12:21:00,
2013-08-02 08:26:00,83.5,81.0,30.10,SE,126,6.0,10.0,92,0.00,,,0.00,449.0,meteohub,2013-08-02 12:26:00,
2013-08-02 08:31:00,83.8,81.0,30.10,East,96,9.0,10.0,91,0.00,,,0.00,466.0,meteohub,2013-08-02 12:31:00,
2013-08-02 08:36:00,84.0,80.8,30.10,SSE,151,0.0,11.0,90,0.00,,,0.00,493.0,meteohub,2013-08-02 12:36:00,
2013-08-02 08:41:00,84.4,80.8,30.10,East,100,0.0,11.0,89,0.00,,,0.00,510.0,meteohub,2013-08-02 12:41:00,
2013-08-02 08:46:00,84.6,80.6,30.10,ESE,113,12.0,14.0,88,0.00,,,0.00,531.0,meteohub,2013-08-02 12:46:00,
2013-08-02 08:51:00,84.9,81.0,30.10,ESE,116,8.0,14.0,88,0.00,,,0.00,577.0,meteohub,2013-08-02 12:51:00,
2013-08-02 08:57:00,85.1,80.8,30.10,ESE,109,11.0,14.0,87,0.00,,,0.00,259.0,meteohub,2013-08-02 12:57:00,
2013-08-02 09:02:00,85.5,80.8,30.10,ESE,117,7.0,14.0,86,0.00,,,0.00,635.0,meteohub,2013-08-02 13:02:00,
2013-08-02 09:07:00,85.6,80.6,30.10,SE,144,16.0,16.0,85,0.00,,,0.00,591.0,meteohub,2013-08-02 13:07:00,
2013-08-02 09:12:00,85.6,80.2,30.10,East,100,6.0,16.0,84,0.00,,,0.00,318.0,meteohub,2013-08-02 13:12:00,
2013-08-02 09:17:00,85.8,80.4,30.10,ESE,114,5.0,16.0,84,0.00,,,0.00,215.0,meteohub,2013-08-02 13:17:00,
2013-08-02 09:22:00,86.2,80.8,30.10,East,97,5.0,16.0,84,0.00,,,0.00,656.0,meteohub,2013-08-02 13:22:00,
2013-08-02 09:27:00,86.4,80.6,30.11,ESE,123,7.0,14.0,83,0.00,,,0.00,327.0,meteohub,2013-08-02 13:27:00,
2013-08-02 09:32:00,86.4,80.6,30.11,ESE,119,12.0,14.0,83,0.00,,,0.00,741.0,meteohub,2013-08-02 13:32:00,
2013-08-02 09:37:00,86.4,80.6,30.11,SE,131,7.0,16.0,83,0.00,,,0.00,741.0,meteohub,2013-08-02 13:37:00,
2013-08-02 09:42:00,86.5,80.4,30.11,ESE,120,6.0,16.0,82,0.00,,,0.00,790.0,meteohub,2013-08-02 13:42:00,
2013-08-02 09:48:00,86.5,80.1,30.11,ESE,114,8.0,14.0,81,0.00,,,0.00,280.0,meteohub,2013-08-02 13:48:00,
2013-08-02 09:53:00,86.5,80.1,30.11,ESE,119,6.0,14.0,81,0.00,,,0.00,315.0,meteohub,2013-08-02 13:53:00,
2013-08-02 09:58:00,86.5,80.1,30.12,SE,126,7.0,15.0,81,0.00,,,0.00,823.0,meteohub,2013-08-02 13:58:00,
2013-08-02 10:03:00,87.1,79.7,30.12,SE,136,9.0,15.0,79,0.00,,,0.00,264.0,meteohub,2013-08-02 14:03:00,
2013-08-02 10:08:00,87.1,79.7,30.12,ESE,102,8.0,16.0,79,0.00,,,0.00,264.0,meteohub,2013-08-02 14:08:00,
2013-08-02 10:13:00,87.3,79.9,30.11,East,92,4.0,16.0,79,0.00,,,0.00,329.0,meteohub,2013-08-02 14:13:00,
2013-08-02 10:18:00,87.6,80.2,30.11,ESE,116,10.0,16.0,79,0.00,,,0.00,778.0,meteohub,2013-08-02 14:18:00,
2013-08-02 10:23:00,88.0,80.2,30.11,NE,47,5.0,14.0,78,0.00,,,0.00,778.0,meteohub,2013-08-02 14:23:00,
2013-08-02 10:28:00,88.3,80.2,30.11,East,93,8.0,14.0,77,0.00,,,0.00,792.0,meteohub,2013-08-02 14:28:00,
2013-08-02 10:33:00,88.5,80.4,30.11,East,100,0.0,14.0,77,0.00,,,0.00,804.0,meteohub,2013-08-02 14:33:00,
2013-08-02 10:38:00,89.1,80.4,30.11,ESE,106,12.0,16.0,76,0.00,,,0.00,816.0,meteohub,2013-08-02 14:38:00,
2013-08-02 10:43:00,89.1,80.4,30.11,ESE,104,6.0,16.0,76,0.00,,,0.00,767.0,meteohub,2013-08-02 14:43:00,
2013-08-02 10:48:00,89.4,80.4,30.11,East,86,12.0,16.0,75,0.00,,,0.00,867.0,meteohub,2013-08-02 14:48:00,
2013-08-02 10:53:00,90.0,81.0,30.11,ESE,107,5.0,18.0,75,0.00,,,0.00,899.0,meteohub,2013-08-02 14:53:00,
2013-08-02 10:58:00,90.3,81.3,30.11,ESE,114,13.0,18.0,75,0.00,,,0.00,878.0,meteohub,2013-08-02 14:58:00,
2013-08-02 11:03:00,90.1,81.5,30.11,East,95,8.0,18.0,76,0.00,,,0.00,885.0,meteohub,2013-08-02 15:03:00,
2013-08-02 11:08:00,90.1,81.5,30.11,East,88,1.0,16.0,76,0.00,,,0.00,873.0,meteohub,2013-08-02 15:08:00,
2013-08-02 11:13:00,90.3,81.3,30.11,SE,131,8.0,16.0,75,0.00,,,0.00,878.0,meteohub,2013-08-02 15:13:00,
2013-08-02 11:18:00,90.5,81.1,30.11,East,80,10.0,14.0,74,0.00,,,0.00,771.0,meteohub,2013-08-02 15:18:00,
2013-08-02 11:23:00,90.5,81.5,30.11,East,90,2.0,16.0,75,0.00,,,0.00,880.0,meteohub,2013-08-02 15:23:00,
2013-08-02 11:28:00,90.7,81.7,30.10,ENE,72,5.0,16.0,75,0.00,,,0.00,903.0,meteohub,2013-08-02 15:28:00,
2013-08-02 11:33:00,90.7,82.0,30.10,ENE,72,5.0,16.0,76,0.00,,,0.00,933.0,meteohub,2013-08-02 15:33:00,
2013-08-02 11:39:00,90.3,81.3,30.10,ENE,68,2.0,16.0,75,0.00,,,0.00,385.0,meteohub,2013-08-02 15:39:00,
2013-08-02 11:44:00,90.5,81.9,30.10,ENE,68,11.0,16.0,76,0.00,,,0.00,385.0,meteohub,2013-08-02 15:44:00,
2013-08-02 11:49:00,90.7,81.3,30.10,East,90,2.0,16.0,74,0.00,,,0.00,922.0,meteohub,2013-08-02 15:49:00,
2013-08-02 11:54:00,91.0,82.4,30.10,ENE,76,11.0,14.0,76,0.00,,,0.00,968.0,meteohub,2013-08-02 15:54:00,
2013-08-02 11:59:00,90.7,82.0,30.10,ENE,75,12.0,14.0,76,0.00,,,0.00,948.0,meteohub,2013-08-02 15:59:00,
2013-08-02 12:04:00,90.5,81.9,30.10,East,86,10.0,14.0,76,0.00,,,0.00,876.0,meteohub,2013-08-02 16:04:00,
2013-08-02 12:09:00,90.5,82.2,30.10,ENE,65,13.0,17.0,77,0.00,,,0.00,906.0,meteohub,2013-08-02 16:09:00,
2013-08-02 12:14:00,90.5,82.2,30.10,SE,130,16.0,22.0,77,0.00,,,0.00,894.0,meteohub,2013-08-02 16:14:00,
2013-08-02 12:19:00,90.5,82.2,30.10,ENE,61,12.0,22.0,77,0.00,,,0.00,894.0,meteohub,2013-08-02 16:19:00,
2013-08-02 12:24:00,90.5,82.2,30.10,NNE,30,7.0,22.0,77,0.00,,,0.00,848.0,meteohub,2013-08-02 16:24:00,
2013-08-02 12:29:00,90.7,82.4,30.09,East,86,11.0,19.0,77,0.00,,,0.00,938.0,meteohub,2013-08-02 16:29:00,
2013-08-02 12:34:00,90.7,82.0,30.09,NE,56,6.0,19.0,76,0.00,,,0.00,890.0,meteohub,2013-08-02 16:34:00,
2013-08-02 12:39:00,91.0,82.8,30.09,ENE,62,13.0,19.0,77,0.00,,,0.00,908.0,meteohub,2013-08-02 16:39:00,
2013-08-02 12:44:00,91.0,82.4,30.09,East,97,7.0,17.0,76,0.00,,,0.00,922.0,meteohub,2013-08-02 16:44:00,
2013-08-02 12:49:00,91.4,83.1,30.09,East,96,5.0,17.0,77,0.00,,,0.00,924.0,meteohub,2013-08-02 16:49:00,
2013-08-02 12:54:00,91.6,82.0,30.09,ESE,117,7.0,14.0,74,0.00,,,0.00,913.0,meteohub,2013-08-02 16:54:00,
2013-08-02 12:59:00,91.6,82.6,30.09,ESE,116,7.0,16.0,75,0.00,,,0.00,897.0,meteohub,2013-08-02 16:59:00,
2013-08-02 13:04:00,91.6,81.7,30.09,ENE,58,9.0,16.0,73,0.00,,,0.00,883.0,meteohub,2013-08-02 17:04:00,
2013-08-02 13:09:00,91.4,81.9,30.09,ENE,71,7.0,17.0,74,0.00,,,0.00,889.0,meteohub,2013-08-02 17:09:00,
2013-08-02 13:14:00,91.8,82.8,30.08,East,97,8.0,17.0,75,0.00,,,0.00,899.0,meteohub,2013-08-02 17:14:00,
2013-08-02 13:19:00,92.1,82.6,30.08,East,79,6.0,17.0,74,0.00,,,0.00,896.0,meteohub,2013-08-02 17:19:00,
2013-08-02 13:24:00,92.1,82.2,30.08,SE,134,14.0,16.0,73,0.00,,,0.00,890.0,meteohub,2013-08-02 17:24:00,
2013-08-02 13:30:00,92.1,82.6,30.07,ENE,66,10.0,16.0,74,0.00,,,0.00,896.0,meteohub,2013-08-02 17:30:00,
2013-08-02 13:35:00,92.3,82.0,30.07,ENE,78,12.0,17.0,72,0.00,,,0.00,885.0,meteohub,2013-08-02 17:35:00,
2013-08-02 13:40:00,92.3,82.4,30.07,East,89,8.0,19.0,73,0.00,,,0.00,883.0,meteohub,2013-08-02 17:40:00,
2013-08-02 13:45:00,92.1,82.2,30.07,ENE,75,6.0,19.0,73,0.00,,,0.00,885.0,meteohub,2013-08-02 17:45:00,
2013-08-02 13:50:00,92.5,82.6,30.07,East,80,6.0,17.0,73,0.00,,,0.00,874.0,meteohub,2013-08-02 17:50:00,
2013-08-02 13:55:00,92.7,81.9,30.07,East,95,9.0,14.0,71,0.00,,,0.00,853.0,meteohub,2013-08-02 17:55:00,
2013-08-02 14:00:00,92.5,82.0,30.06,ESE,107,13.0,20.0,72,0.00,,,0.00,857.0,meteohub,2013-08-02 18:00:00,
2013-08-02 14:05:00,92.1,81.9,30.06,East,92,11.0,20.0,72,0.00,,,0.00,758.0,meteohub,2013-08-02 18:05:00,
2013-08-02 14:10:00,92.1,81.9,30.06,East,88,13.0,20.0,72,0.00,,,0.00,843.0,meteohub,2013-08-02 18:10:00,
2013-08-02 14:15:00,92.1,81.9,30.06,East,85,6.0,17.0,72,0.00,,,0.00,834.0,meteohub,2013-08-02 18:15:00,
2013-08-02 14:20:00,92.3,82.0,30.06,ENE,62,8.0,17.0,72,0.00,,,0.00,841.0,meteohub,2013-08-02 18:20:00,
2013-08-02 14:25:00,92.5,82.6,30.06,ENE,76,8.0,24.0,73,0.00,,,0.00,839.0,meteohub,2013-08-02 18:25:00,
2013-08-02 14:30:00,92.1,81.3,30.06,ESE,106,12.0,24.0,71,0.00,,,0.00,790.0,meteohub,2013-08-02 18:30:00,
2013-08-02 14:35:00,92.1,82.2,30.06,East,82,14.0,24.0,73,0.00,,,0.00,785.0,meteohub,2013-08-02 18:35:00,
2013-08-02 14:40:00,91.6,82.0,30.06,NE,51,6.0,21.0,74,0.00,,,0.00,771.0,meteohub,2013-08-02 18:40:00,
2013-08-02 14:45:00,91.6,81.7,30.05,ESE,110,7.0,21.0,73,0.00,,,0.00,728.0,meteohub,2013-08-02 18:45:00,
2013-08-02 14:50:00,91.4,81.5,30.05,NNE,20,10.0,17.0,73,0.00,,,0.00,739.0,meteohub,2013-08-02 18:50:00,
2013-08-02 14:55:00,91.4,81.1,30.05,East,99,13.0,17.0,72,0.00,,,0.00,737.0,meteohub,2013-08-02 18:55:00,
2013-08-02 15:00:00,91.6,81.3,30.05,East,96,7.0,17.0,72,0.00,,,0.00,720.0,meteohub,2013-08-02 19:00:00,
2013-08-02 15:05:00,91.6,81.7,30.05,East,88,7.0,17.0,73,0.00,,,0.00,707.0,meteohub,2013-08-02 19:05:00,
2013-08-02 15:11:00,91.8,81.5,30.05,East,99,6.0,17.0,72,0.00,,,0.00,677.0,meteohub,2013-08-02 19:11:00,
2013-08-02 15:16:00,92.1,80.4,30.05,ESE,103,11.0,16.0,69,0.00,,,0.00,667.0,meteohub,2013-08-02 19:16:00,
2013-08-02 15:21:00,92.1,79.5,30.05,ESE,106,8.0,17.0,67,0.00,,,0.00,667.0,meteohub,2013-08-02 19:21:00,
2013-08-02 15:26:00,91.8,79.7,30.05,ENE,72,11.0,19.0,68,0.00,,,0.00,655.0,meteohub,2013-08-02 19:26:00,
2013-08-02 15:31:00,91.8,79.2,30.05,SE,124,5.0,19.0,67,0.00,,,0.00,646.0,meteohub,2013-08-02 19:31:00,
2013-08-02 15:36:00,91.6,79.5,30.05,ENE,68,8.0,18.0,68,0.00,,,0.00,642.0,meteohub,2013-08-02 19:36:00,
2013-08-02 15:41:00,91.6,78.6,30.05,ESE,112,3.0,18.0,66,0.00,,,0.00,567.0,meteohub,2013-08-02 19:41:00,
2013-08-02 15:47:00,91.6,78.1,30.05,ENE,68,7.0,18.0,65,0.00,,,0.00,589.0,meteohub,2013-08-02 19:47:00,
2013-08-02 15:51:00,91.6,78.1,30.05,ESE,109,10.0,17.0,65,0.00,,,0.00,591.0,meteohub,2013-08-02 19:51:00,
2013-08-02 15:57:00,91.4,77.9,30.05,East,99,3.0,17.0,65,0.00,,,0.00,551.0,meteohub,2013-08-02 19:57:00,
2013-08-02 16:02:00,91.4,77.9,30.05,ESE,107,6.0,17.0,65,0.00,,,0.00,540.0,meteohub,2013-08-02 20:02:00,
2013-08-02 16:07:00,91.2,78.3,30.05,East,93,11.0,17.0,66,0.00,,,0.00,516.0,meteohub,2013-08-02 20:07:00,
2013-08-02 16:12:00,91.2,78.3,30.05,SE,141,5.0,18.0,66,0.00,,,0.00,498.0,meteohub,2013-08-02 20:12:00,
2013-08-02 16:17:00,91.0,78.1,30.04,ESE,120,13.0,18.0,66,0.00,,,0.00,493.0,meteohub,2013-08-02 20:17:00,
2013-08-02 16:22:00,90.7,78.3,30.04,ESE,123,14.0,17.0,67,0.00,,,0.00,477.0,meteohub,2013-08-02 20:22:00,
2013-08-02 16:27:00,90.7,79.2,30.04,SE,136,6.0,18.0,69,0.00,,,0.00,431.0,meteohub,2013-08-02 20:27:00,
2013-08-02 16:32:00,90.7,79.2,30.04,SE,136,7.0,18.0,69,0.00,,,0.00,413.0,meteohub,2013-08-02 20:32:00,
2013-08-02 16:37:00,90.5,79.0,30.04,East,93,6.0,18.0,69,0.00,,,0.00,421.0,meteohub,2013-08-02 20:37:00,
2013-08-02 16:42:00,90.7,79.5,30.04,East,85,6.0,18.0,70,0.00,,,0.00,403.0,meteohub,2013-08-02 20:42:00,
2013-08-02 16:47:00,90.7,80.4,30.04,ESE,116,5.0,13.0,72,0.00,,,0.00,387.0,meteohub,2013-08-02 20:47:00,
2013-08-02 16:52:00,90.5,80.6,30.04,East,97,3.0,16.0,73,0.00,,,0.00,378.0,meteohub,2013-08-02 20:52:00,
2013-08-02 16:57:00,90.3,80.4,30.05,ESE,102,6.0,16.0,73,0.00,,,0.00,362.0,meteohub,2013-08-02 20:57:00,
2013-08-02 17:02:00,90.1,80.8,30.05,East,99,6.0,12.0,74,0.00,,,0.00,338.0,meteohub,2013-08-02 21:02:00,
2013-08-02 17:07:00,90.0,80.6,30.05,East,97,5.0,12.0,74,0.00,,,0.00,318.0,meteohub,2013-08-02 21:07:00,
2013-08-02 17:13:00,89.8,80.8,30.05,ENE,75,2.0,12.0,75,0.00,,,0.00,273.0,meteohub,2013-08-02 21:13:00,
2013-08-02 17:18:00,89.2,81.1,30.05,East,90,6.0,16.0,77,0.00,,,0.00,264.0,meteohub,2013-08-02 21:18:00,
2013-08-02 17:23:00,89.1,81.3,30.05,ESE,103,7.0,16.0,78,0.00,,,0.00,238.0,meteohub,2013-08-02 21:23:00,
2013-08-02 17:28:00,88.5,81.1,30.05,East,90,5.0,16.0,79,0.00,,,0.00,223.0,meteohub,2013-08-02 21:28:00,
2013-08-02 17:33:00,88.2,81.1,30.05,East,79,10.0,16.0,80,0.00,,,0.00,211.0,meteohub,2013-08-02 21:33:00,
2013-08-02 17:38:00,88.0,81.0,30.05,East,88,6.0,16.0,80,0.00,,,0.00,216.0,meteohub,2013-08-02 21:38:00,
2013-08-02 17:43:00,87.8,80.8,30.05,ESE,110,12.0,13.0,80,0.00,,,0.00,120.0,meteohub,2013-08-02 21:43:00,
2013-08-02 17:48:00,87.4,81.0,30.05,East,99,4.0,16.0,81,0.00,,,0.00,88.0,meteohub,2013-08-02 21:48:00,
2013-08-02 17:53:00,87.1,81.0,30.05,East,83,6.0,16.0,82,0.00,,,0.00,128.0,meteohub,2013-08-02 21:53:00,
2013-08-02 17:58:00,86.7,80.6,30.05,ENE,68,6.0,13.0,82,0.00,,,0.00,107.0,meteohub,2013-08-02 21:58:00,
2013-08-02 18:03:00,86.5,80.1,30.05,ESE,110,3.0,12.0,81,0.00,,,0.00,84.0,meteohub,2013-08-02 22:03:00,
2013-08-02 18:08:00,86.5,80.4,30.05,East,88,3.0,12.0,82,0.00,,,0.00,79.0,meteohub,2013-08-02 22:08:00,
2013-08-02 18:13:00,86.5,80.8,30.06,East,83,2.0,12.0,83,0.00,,,0.00,70.0,meteohub,2013-08-02 22:13:00,
2013-08-02 18:18:00,86.4,81.0,30.06,ENE,62,2.0,12.0,84,0.00,,,0.00,44.0,meteohub,2013-08-02 22:18:00,
2013-08-02 18:23:00,86.2,80.8,30.06,East,79,10.0,14.0,84,0.00,,,0.00,37.0,meteohub,2013-08-02 22:23:00,
2013-08-02 18:28:00,85.6,80.2,30.06,ENE,78,7.0,18.0,84,0.00,,,0.00,28.0,meteohub,2013-08-02 22:28:00,
2013-08-02 18:33:00,85.6,80.2,30.06,ENE,73,2.0,18.0,84,0.00,,,0.00,21.0,meteohub,2013-08-02 22:33:00,
2013-08-02 18:38:00,85.5,80.1,30.06,ENE,58,12.0,18.0,84,0.00,,,0.00,18.0,meteohub,2013-08-02 22:38:00,
2013-08-02 18:43:00,85.5,80.4,30.06,East,80,5.0,12.0,85,0.00,,,0.00,12.0,meteohub,2013-08-02 22:43:00,
2013-08-02 18:48:00,85.5,80.4,30.06,NE,55,6.0,14.0,85,0.00,,,0.00,5.0,meteohub,2013-08-02 22:48:00,
2013-08-02 18:53:00,85.5,80.8,30.06,ESE,121,5.0,14.0,86,0.00,,,0.00,0.0,meteohub,2013-08-02 22:53:00,
2013-08-02 18:59:00,85.3,80.6,30.06,ESE,102,5.0,13.0,86,0.00,,,0.00,0.0,meteohub,2013-08-02 22:59:00,
2013-08-02 19:04:00,85.1,80.4,30.06,East,95,3.0,17.0,86,0.00,,,0.00,0.0,meteohub,2013-08-02 23:04:00,
2013-08-02 19:09:00,84.9,80.2,30.06,East,97,7.0,17.0,86,0.00,,,0.00,0.0,meteohub,2013-08-02 23:09:00,
2013-08-02 19:14:00,84.7,80.1,30.06,ESE,121,4.0,17.0,86,0.00,,,0.00,0.0,meteohub,2013-08-02 23:14:00,
2013-08-02 19:19:00,84.7,80.4,30.06,East,82,1.0,13.0,87,0.00,,,0.00,0.0,meteohub,2013-08-02 23:19:00,
2013-08-02 19:24:00,84.6,80.2,30.06,ENE,71,5.0,13.0,87,0.00,,,0.00,0.0,meteohub,2013-08-02 23:24:00,
2013-08-02 19:29:00,84.6,80.2,30.07,East,88,7.0,13.0,87,0.00,,,0.00,0.0,meteohub,2013-08-02 23:29:00,
2013-08-02 19:34:00,84.6,80.2,30.07,East,86,5.0,13.0,87,0.00,,,0.00,0.0,meteohub,2013-08-02 23:34:00,
2013-08-02 19:39:00,84.6,80.2,30.07,ESE,106,3.0,13.0,87,0.00,,,0.00,0.0,meteohub,2013-08-02 23:39:00,
2013-08-02 19:44:00,84.4,80.1,30.08,SE,127,8.0,10.0,87,0.00,,,0.00,0.0,meteohub,2013-08-02 23:44:00,
2013-08-02 19:49:00,84.4,80.1,30.08,NNE,32,12.0,12.0,87,0.00,,,0.00,0.0,meteohub,2013-08-02 23:49:00,
2013-08-02 19:55:00,84.4,80.1,30.08,ESE,112,5.0,10.0,87,0.00,,,0.00,0.0,meteohub,2013-08-02 23:55:00,
2013-08-02 20:00:00,84.0,79.7,30.09,East,92,10.0,12.0,87,0.00,,,0.00,0.0,meteohub,2013-08-03 00:00:00,
2013-08-02 20:05:00,84.0,79.7,30.09,ENE,71,7.0,12.0,87,0.00,,,0.00,0.0,meteohub,2013-08-03 00:05:00,
2013-08-02 20:10:00,84.0,79.7,30.09,ESE,109,7.0,13.0,87,0.00,,,0.00,0.0,meteohub,2013-08-03 00:10:00,
2013-08-02 20:15:00,84.0,79.7,30.09,ENE,78,5.0,13.0,87,0.00,,,0.00,0.0,meteohub,2013-08-03 00:15:00,
2013-08-02 20:20:00,84.0,79.7,30.09,East,93,7.0,16.0,87,0.00,,,0.00,0.0,meteohub,2013-08-03 00:20:00,
2013-08-02 20:25:00,84.0,79.7,30.09,East,96,7.0,16.0,87,0.00,,,0.00,0.0,meteohub,2013-08-03 00:25:00,
2013-08-02 20:30:00,84.0,79.7,30.10,ENE,75,7.0,12.0,87,0.00,,,0.00,0.0,meteohub,2013-08-03 00:30:00,
2013-08-02 20:36:00,84.0,79.7,30.10,East,99,0.0,14.0,87,0.00,,,0.00,0.0,meteohub,2013-08-03 00:36:00,
2013-08-02 20:40:00,84.0,79.7,30.10,ENE,76,2.0,14.0,87,0.00,,,0.00,0.0,meteohub,2013-08-03 00:40:00,
2013-08-02 20:46:00,84.0,79.7,30.11,East,96,5.0,12.0,87,0.00,,,0.00,0.0,meteohub,2013-08-03 00:46:00,
2013-08-02 20:51:00,84.0,79.7,30.11,East,90,6.0,12.0,87,0.00,,,0.00,0.0,meteohub,2013-08-03 00:51:00,
2013-08-02 20:56:00,84.0,79.7,30.11,ESE,104,0.0,13.0,87,0.00,,,0.00,0.0,meteohub,2013-08-03 00:56:00,
2013-08-02 21:01:00,84.0,80.1,30.11,ESE,117,7.0,13.0,88,0.00,,,0.00,0.0,meteohub,2013-08-03 01:01:00,
2013-08-02 21:06:00,83.8,79.9,30.11,East,93,7.0,13.0,88,0.00,,,0.00,0.0,meteohub,2013-08-03 01:06:00,
2013-08-02 21:11:00,83.8,79.9,30.11,East,95,4.0,11.0,88,0.00,,,0.00,0.0,meteohub,2013-08-03 01:11:00,
2013-08-02 21:16:00,83.8,79.9,30.11,East,97,3.0,11.0,88,0.00,,,0.00,0.0,meteohub,2013-08-03 01:16:00,
2013-08-02 21:22:00,83.8,79.9,30.11,SE,136,7.0,11.0,88,0.00,,,0.00,0.0,meteohub,2013-08-03 01:22:00,
2013-08-02 21:27:00,83.8,79.9,30.11,ESE,110,7.0,11.0,88,0.00,,,0.00,0.0,meteohub,2013-08-03 01:27:00,
2013-08-02 21:32:00,83.7,79.7,30.12,SE,124,7.0,11.0,88,0.00,,,0.00,0.0,meteohub,2013-08-03 01:32:00,
2013-08-02 21:37:00,83.7,79.7,30.12,ESE,104,0.0,11.0,88,0.00,,,0.00,0.0,meteohub,2013-08-03 01:37:00,
2013-08-02 21:42:00,83.7,79.7,30.12,ESE,120,7.0,11.0,88,0.00,,,0.00,0.0,meteohub,2013-08-03 01:42:00,
2013-08-02 21:47:00,83.7,79.7,30.12,East,100,7.0,11.0,88,0.00,,,0.00,0.0,meteohub,2013-08-03 01:47:00,
2013-08-02 21:52:00,83.5,79.5,30.12,East,100,0.0,8.0,88,0.00,,,0.00,0.0,meteohub,2013-08-03 01:52:00,
2013-08-02 21:57:00,83.5,79.5,30.12,SE,130,7.0,8.0,88,0.00,,,0.00,0.0,meteohub,2013-08-03 01:57:00,
2013-08-02 22:02:00,83.5,79.5,30.12,SE,126,0.0,8.0,88,0.00,,,0.00,0.0,meteohub,2013-08-03 02:02:00,
2013-08-02 22:07:00,83.5,79.5,30.12,ESE,109,0.0,11.0,88,0.00,,,0.00,0.0,meteohub,2013-08-03 02:07:00,
2013-08-02 22:12:00,83.5,79.9,30.12,SE,136,3.0,11.0,89,0.00,,,0.00,0.0,meteohub,2013-08-03 02:12:00,
2013-08-02 22:17:00,83.1,79.9,30.12,East,99,6.0,11.0,90,0.00,,,0.00,0.0,meteohub,2013-08-03 02:17:00,
2013-08-02 22:22:00,82.9,79.7,30.12,ESE,119,6.0,9.0,90,0.00,,,0.00,0.0,meteohub,2013-08-03 02:22:00,
2013-08-02 22:27:00,82.8,79.9,30.12,ESE,120,0.0,9.0,91,0.00,,,0.00,0.0,meteohub,2013-08-03 02:27:00,
2013-08-02 22:32:00,82.8,79.9,30.12,SE,133,6.0,7.0,91,0.00,,,0.00,0.0,meteohub,2013-08-03 02:32:00,
2013-08-02 22:37:00,82.6,80.1,30.12,SE,131,5.0,7.0,92,0.00,,,0.00,0.0,meteohub,2013-08-03 02:37:00,
2013-08-02 22:42:00,82.4,79.9,30.13,ESE,107,6.0,7.0,92,0.00,,,0.00,0.0,meteohub,2013-08-03 02:42:00,
2013-08-02 22:47:00,82.4,79.5,30.13,SE,124,8.0,11.0,91,0.00,,,0.00,0.0,meteohub,2013-08-03 02:47:00,
2013-08-02 22:52:00,82.4,79.5,30.13,ESE,106,3.0,11.0,91,0.00,,,0.00,0.0,meteohub,2013-08-03 02:52:00,
2013-08-02 22:57:00,82.6,79.7,30.13,East,99,0.0,11.0,91,0.00,,,0.00,0.0,meteohub,2013-08-03 02:57:00,
2013-08-02 23:03:00,82.6,79.7,30.13,ESE,109,6.0,9.0,91,0.00,,,0.00,0.0,meteohub,2013-08-03 03:03:00,
2013-08-02 23:07:00,82.6,79.7,30.13,East,93,0.0,7.0,91,0.00,,,0.00,0.0,meteohub,2013-08-03 03:07:00,
2013-08-02 23:13:00,82.8,79.9,30.13,East,93,0.0,7.0,91,0.00,,,0.00,0.0,meteohub,2013-08-03 03:13:00,
2013-08-02 23:18:00,82.8,79.9,30.13,ESE,102,0.0,7.0,91,0.00,,,0.00,0.0,meteohub,2013-08-03 03:18:00,
2013-08-02 23:23:00,82.8,79.9,30.13,ESE,102,0.0,7.0,91,0.00,,,0.00,0.0,meteohub,2013-08-03 03:23:00,
2013-08-02 23:28:00,82.8,79.9,30.13,ESE,106,7.0,7.0,91,0.00,,,0.00,0.0,meteohub,2013-08-03 03:28:00,
2013-08-02 23:33:00,82.8,79.9,30.13,ESE,107,0.0,9.0,91,0.00,,,0.00,0.0,meteohub,2013-08-03 03:33:00,
2013-08-02 23:38:00,82.8,79.9,30.13,East,82,0.0,9.0,91,0.00,,,0.00,0.0,meteohub,2013-08-03 03:38:00,
2013-08-02 23:43:00,82.8,79.9,30.12,East,83,0.0,9.0,91,0.00,,,0.00,0.0,meteohub,2013-08-03 03:43:00,
2013-08-02 23:48:00,82.8,79.9,30.12,ENE,66,0.0,6.0,91,0.00,,,0.00,0.0,meteohub,2013-08-03 03:48:00,
2013-08-02 23:53:00,82.9,80.1,30.12,East,100,0.0,6.0,91,0.00,,,0.00,0.0,meteohub,2013-08-03 03:53:00,
2013-08-02 23:58:00,82.9,80.1,30.12,East,96,5.0,10.0,91,0.00,,,0.00,0.0,meteohub,2013-08-03 03:58:00,